Angers-Loire Airport

Airport
ICAO code: 
LFJR
IATA Code: 
ANE
Summary
ICAO Region: 
EUR
Territory: 
Location: 
Marcé, Pays de la Loire
Serving: 
Angers
Elevation: 
194 ft
Coordinates: 
Aerial View: 
47° 33' 37.08" N, 0° 18' 43.999" W
Metar
Observation
LFJR 241730Z AUTO 08007KT 6000 OVC004 02/01 Q1031
Station
MARCE
Date/Time
2022-01-24 17:30:00
Wind direction
80°
Wind speed
07 kts
Lowest cloud amount
overcast
Temperature
2°C
Dew point
1°C
Humidity
93%
QNH
1031 hPa
Weather condition
n/a

Runways

Designator Length Width Surface Rops
8/26 1800 45 ASP Yes/Yes
Airport map: 
Aerial View: 

SKYbrary Partners:

Safety knowledge contributed by: